createdAt,value
2023-05-17T00:00:12.410Z,22.50
2023-05-17T00:02:40.850Z,22.60
2023-05-17T00:05:09.943Z,22.50
2023-05-17T00:07:38.314Z,22.50
2023-05-17T00:10:07.278Z,22.40
2023-05-17T00:12:35.557Z,22.40
2023-05-17T00:15:03.919Z,22.30
2023-05-17T00:17:34.496Z,22.30
2023-05-17T00:20:02.977Z,22.30
2023-05-17T00:22:31.477Z,22.30
2023-05-17T00:24:59.756Z,22.50
2023-05-17T00:27:28.016Z,22.70
2023-05-17T00:29:56.424Z,22.90
2023-05-17T00:32:24.889Z,23.10
2023-05-17T00:34:53.189Z,22.90
2023-05-17T00:37:24.221Z,22.70
2023-05-17T00:39:52.667Z,22.60
2023-05-17T00:42:21.169Z,22.50
2023-05-17T00:44:49.332Z,22.60
2023-05-17T00:47:18.510Z,22.90
2023-05-17T00:49:46.843Z,23.10
2023-05-17T00:52:15.365Z,23.00
2023-05-17T00:54:44.158Z,22.80
2023-05-17T00:57:12.588Z,22.70
2023-05-17T00:59:41.181Z,22.60
2023-05-17T01:02:10.324Z,22.70
2023-05-17T01:04:41.960Z,22.80
2023-05-17T01:07:11.357Z,23.10
2023-05-17T01:09:39.879Z,23.10
2023-05-17T01:12:16.064Z,22.90
2023-05-17T01:15:07.870Z,22.80
2023-05-17T01:18:04.288Z,22.70
2023-05-17T01:20:37.796Z,22.60
2023-05-17T01:23:37.062Z,22.50
2023-05-17T01:26:40.113Z,22.60
2023-05-17T01:29:10.786Z,22.40
2023-05-17T01:31:40.189Z,22.60
2023-05-17T01:34:11.823Z,22.90
2023-05-17T01:36:40.387Z,23.10
2023-05-17T01:39:09.564Z,23.00
2023-05-17T01:41:42.320Z,22.80
2023-05-17T01:44:26.146Z,22.60
2023-05-17T01:47:12.460Z,22.60
2023-05-17T01:49:44.021Z,22.60
2023-05-17T01:52:15.314Z,22.50
2023-05-17T01:55:09.753Z,22.50
2023-05-17T01:57:38.519Z,22.40
2023-05-17T02:00:08.598Z,22.40
2023-05-17T02:02:42.863Z,22.40
2023-05-17T02:05:11.446Z,22.40
2023-05-17T02:07:41.266Z,22.30
2023-05-17T02:10:09.937Z,22.30
2023-05-17T02:12:43.619Z,22.30
2023-05-17T02:15:12.095Z,22.30
2023-05-17T02:17:40.809Z,22.40
2023-05-17T02:20:10.311Z,22.60
2023-05-17T02:22:38.716Z,22.90
2023-05-17T02:25:08.043Z,23.00
2023-05-17T02:27:36.681Z,22.80
2023-05-17T02:30:04.985Z,22.70
2023-05-17T02:32:33.509Z,22.60
2023-05-17T02:35:01.855Z,22.50
2023-05-17T02:39:13.541Z,22.80
2023-05-17T02:41:41.855Z,23.10
2023-05-17T02:44:10.264Z,23.20
2023-05-17T02:46:38.673Z,23.00
2023-05-17T02:49:07.028Z,22.80
2023-05-17T02:51:35.258Z,22.70
2023-05-17T02:56:09.731Z,22.60
2023-05-17T02:58:40.193Z,22.90
2023-05-17T03:01:08.433Z,23.10
2023-05-17T03:03:36.877Z,23.10
2023-05-17T03:06:06.674Z,23.00
2023-05-17T03:08:36.108Z,22.80
2023-05-17T03:11:05.243Z,22.70
2023-05-17T03:13:33.371Z,22.50
2023-05-17T03:16:01.884Z,22.40
2023-05-17T03:18:30.308Z,22.40
2023-05-17T03:20:59.328Z,22.40
2023-05-17T03:23:28.708Z,22.50
2023-05-17T03:26:01.769Z,22.70
2023-05-17T03:28:34.876Z,22.90
2023-05-17T03:31:04.326Z,23.10
2023-05-17T03:33:34.574Z,22.90
2023-05-17T03:36:04.045Z,22.70
2023-05-17T03:38:39.679Z,22.60
2023-05-17T03:41:08.377Z,22.50
2023-05-17T03:43:36.756Z,22.60
2023-05-17T03:46:06.256Z,22.80
2023-05-17T03:48:36.253Z,23.10
2023-05-17T03:51:06.360Z,23.10
2023-05-17T03:53:36.084Z,22.90
2023-05-17T03:56:04.571Z,22.70
2023-05-17T03:58:33.059Z,22.60
2023-05-17T04:01:01.493Z,22.50
2023-05-17T04:03:29.792Z,22.40
2023-05-17T04:06:08.204Z,22.70
2023-05-17T04:08:38.613Z,22.90
2023-05-17T04:11:08.034Z,23.10
2023-05-17T04:13:36.603Z,22.90
2023-05-17T04:16:05.117Z,22.70
2023-05-17T04:18:36.238Z,22.60
2023-05-17T04:21:05.739Z,22.50
2023-05-17T04:23:35.481Z,22.60
2023-05-17T04:26:04.998Z,22.80
2023-05-17T04:28:37.402Z,23.00
2023-05-17T04:31:08.620Z,23.10
2023-05-17T04:33:37.841Z,22.80
2023-05-17T04:36:07.816Z,22.60
2023-05-17T04:38:39.272Z,22.50
2023-05-17T04:41:10.751Z,22.60
2023-05-17T04:43:40.517Z,22.80
2023-05-17T04:46:15.133Z,23.10
2023-05-17T04:48:43.735Z,23.20
2023-05-17T04:51:11.787Z,23.00
2023-05-17T04:53:40.705Z,22.80
2023-05-17T04:56:14.393Z,22.60
2023-05-17T04:58:42.869Z,22.50
2023-05-17T05:01:11.263Z,22.60
2023-05-17T05:03:39.674Z,22.80
2023-05-17T05:06:15.592Z,23.00
2023-05-17T05:08:43.854Z,23.00
2023-05-17T05:11:13.505Z,22.80
2023-05-17T05:13:41.933Z,22.60
2023-05-17T05:16:10.541Z,22.50
2023-05-17T05:18:38.832Z,22.50
2023-05-17T05:21:07.304Z,22.70
2023-05-17T05:23:35.678Z,22.90
2023-05-17T05:26:07.582Z,23.10
2023-05-17T05:28:36.066Z,23.10
2023-05-17T05:31:04.823Z,22.80
2023-05-17T05:33:41.612Z,22.70
2023-05-17T05:36:10.712Z,22.50
2023-05-17T05:38:39.155Z,22.60
2023-05-17T05:41:07.991Z,22.80
2023-05-17T05:43:37.689Z,23.00
2023-05-17T05:46:13.195Z,23.10
2023-05-17T05:48:43.182Z,22.90
2023-05-17T05:51:12.125Z,22.70
2023-05-17T05:53:43.210Z,22.60
2023-05-17T05:56:11.696Z,22.40
2023-05-17T05:58:39.995Z,22.40
2023-05-17T06:01:09.832Z,22.60
2023-05-17T06:03:38.277Z,22.80
2023-05-17T06:06:06.769Z,23.00
2023-05-17T06:08:35.102Z,22.90
2023-05-17T06:11:03.504Z,22.70
2023-05-17T06:13:31.949Z,22.60
2023-05-17T06:16:00.292Z,22.40
2023-05-17T06:18:28.917Z,22.50
2023-05-17T06:20:57.198Z,22.70
2023-05-17T06:24:04.716Z,23.00
2023-05-17T06:26:33.405Z,23.20
2023-05-17T06:29:01.580Z,23.30
2023-05-17T06:31:30.135Z,23.00
2023-05-17T06:33:58.384Z,22.80
2023-05-17T06:36:26.631Z,22.60
2023-05-17T06:38:54.902Z,22.50
2023-05-17T06:41:23.433Z,22.60
2023-05-17T06:43:57.710Z,22.80
2023-05-17T06:46:25.923Z,23.00
2023-05-17T06:48:54.202Z,23.00
2023-05-17T06:51:22.831Z,22.80
2023-05-17T06:53:51.169Z,22.50
2023-05-17T06:56:19.648Z,22.50
2023-05-17T06:58:47.979Z,22.60
2023-05-17T07:01:16.222Z,22.80
2023-05-17T07:03:44.749Z,23.00
2023-05-17T07:06:12.852Z,23.10
2023-05-17T07:08:41.149Z,22.90
2023-05-17T07:11:09.540Z,22.70
2023-05-17T07:13:37.839Z,22.60
2023-05-17T07:16:08.705Z,22.40
2023-05-17T07:18:38.046Z,22.50
2023-05-17T07:21:06.288Z,22.70
2023-05-17T07:23:34.578Z,22.90
2023-05-17T07:26:02.888Z,23.00
2023-05-17T07:28:31.151Z,22.80
2023-05-17T07:30:59.351Z,22.60
2023-05-17T07:33:30.346Z,22.60
2023-05-17T07:35:58.812Z,22.50
2023-05-17T07:38:27.007Z,22.60
2023-05-17T07:40:55.348Z,22.80
2023-05-17T07:43:23.597Z,23.00
2023-05-17T07:45:52.208Z,23.10
2023-05-17T07:48:20.954Z,23.10
2023-05-17T07:50:54.319Z,23.10
2023-05-17T07:53:22.752Z,23.10
2023-05-17T07:55:51.059Z,23.10
2023-05-17T07:58:19.452Z,23.20
2023-05-17T08:00:47.873Z,23.20
2023-05-17T08:03:17.503Z,23.10
2023-05-17T08:05:46.220Z,23.10
2023-05-17T08:08:17.442Z,23.10
2023-05-17T08:10:45.695Z,23.10
2023-05-17T08:13:14.197Z,23.10
2023-05-17T08:15:42.482Z,23.10
2023-05-17T08:18:11.129Z,23.10
2023-05-17T08:20:39.757Z,23.10
2023-05-17T08:23:07.978Z,23.10
2023-05-17T08:25:36.429Z,23.10
2023-05-17T08:28:05.139Z,23.10
2023-05-17T08:30:33.287Z,23.10
2023-05-17T08:33:01.649Z,23.10
2023-05-17T08:35:30.542Z,23.00
2023-05-17T08:37:59.760Z,23.10
2023-05-17T08:40:29.252Z,23.10
2023-05-17T08:42:58.529Z,23.10
2023-05-17T08:45:28.862Z,23.10
2023-05-17T08:47:57.413Z,23.10
2023-05-17T08:50:26.870Z,23.10
2023-05-17T08:52:57.060Z,23.20
2023-05-17T08:55:25.585Z,23.10
2023-05-17T08:57:53.785Z,23.10
2023-05-17T09:00:24.478Z,23.10
2023-05-17T09:02:52.989Z,23.10
2023-05-17T09:05:21.454Z,23.10
2023-05-17T09:07:50.262Z,23.10
2023-05-17T09:10:18.562Z,23.10
2023-05-17T09:12:49.354Z,23.10
2023-05-17T09:15:19.981Z,23.00
2023-05-17T09:17:58.550Z,23.10
2023-05-17T09:20:29.803Z,23.10
2023-05-17T09:23:00.156Z,23.10
2023-05-17T09:25:30.122Z,23.10
2023-05-17T09:28:06.514Z,23.00
2023-05-17T09:30:36.393Z,23.10
2023-05-17T09:33:09.368Z,23.00
2023-05-17T09:35:39.442Z,23.00
2023-05-17T09:38:14.919Z,23.00
2023-05-17T09:40:44.867Z,23.00
2023-05-17T09:43:13.753Z,23.00
2023-05-17T09:45:42.047Z,23.00
2023-05-17T09:48:20.140Z,23.00
2023-05-17T09:50:52.447Z,23.00
2023-05-17T09:53:34.516Z,23.00
2023-05-17T09:56:05.409Z,23.00
2023-05-17T09:58:36.882Z,23.00
2023-05-17T10:01:07.555Z,23.00
2023-05-17T10:03:37.853Z,23.00
2023-05-17T10:06:13.368Z,23.00
2023-05-17T10:08:59.121Z,23.00
2023-05-17T10:11:31.932Z,23.00
2023-05-17T10:14:22.023Z,23.00
2023-05-17T10:16:51.618Z,23.00
2023-05-17T10:19:21.724Z,23.00
2023-05-17T10:21:52.011Z,23.10
2023-05-17T10:24:22.062Z,23.10
2023-05-17T10:26:54.410Z,23.10
2023-05-17T10:29:23.666Z,23.20
2023-05-17T10:31:52.119Z,23.20
2023-05-17T10:34:21.211Z,23.20
2023-05-17T10:36:53.739Z,23.20
2023-05-17T10:39:22.831Z,23.20
2023-05-17T10:42:13.473Z,23.30
2023-05-17T10:44:43.442Z,23.30
2023-05-17T10:47:11.301Z,23.30
2023-05-17T10:49:40.122Z,23.30
2023-05-17T10:52:17.755Z,23.30
2023-05-17T10:54:48.901Z,23.30
2023-05-17T10:57:49.970Z,23.30
2023-05-17T11:00:22.390Z,23.40
2023-05-17T11:02:51.004Z,23.40
2023-05-17T11:05:26.274Z,23.40
2023-05-17T11:08:16.650Z,23.40
2023-05-17T11:11:13.836Z,23.40
2023-05-17T11:13:52.831Z,23.40
2023-05-17T11:16:37.943Z,23.40
2023-05-17T11:19:11.257Z,23.40
2023-05-17T11:21:49.432Z,23.40
2023-05-17T11:24:26.624Z,23.40
2023-05-17T11:26:58.482Z,23.40
2023-05-17T11:29:30.168Z,23.40
2023-05-17T11:31:58.778Z,23.40
2023-05-17T11:34:28.517Z,23.50
2023-05-17T11:36:57.164Z,23.50
2023-05-17T11:39:25.542Z,23.40
2023-05-17T11:41:55.490Z,23.50
2023-05-17T11:44:42.299Z,23.50
2023-05-17T11:47:10.688Z,23.40
2023-05-17T11:49:40.742Z,23.40
2023-05-17T11:52:09.458Z,23.40
2023-05-17T11:54:40.567Z,23.40
2023-05-17T11:57:10.075Z,23.40
2023-05-17T11:59:39.619Z,23.40
2023-05-17T12:02:08.062Z,23.40
2023-05-17T12:04:38.635Z,23.40
2023-05-17T12:07:10.523Z,23.40
2023-05-17T12:09:40.265Z,23.40
2023-05-17T12:12:08.891Z,23.40
2023-05-17T12:14:46.313Z,23.40
2023-05-17T12:17:25.314Z,23.50
2023-05-17T12:19:54.882Z,23.50
2023-05-17T12:22:23.697Z,23.40
2023-05-17T12:24:52.038Z,23.40
2023-05-17T12:27:27.317Z,23.40
2023-05-17T12:29:56.796Z,23.40
2023-05-17T12:32:25.335Z,23.40
2023-05-17T12:34:53.789Z,23.30
2023-05-17T12:37:22.167Z,23.20
2023-05-17T12:39:50.814Z,23.30
2023-05-17T12:42:18.959Z,23.40
2023-05-17T12:44:50.221Z,23.40
2023-05-17T12:47:18.605Z,23.40
2023-05-17T12:49:56.387Z,23.50
2023-05-17T12:52:24.952Z,23.50
2023-05-17T12:54:53.326Z,23.50
2023-05-17T12:57:21.787Z,23.60
2023-05-17T12:59:53.065Z,23.60
2023-05-17T13:02:21.970Z,23.20
2023-05-17T13:04:50.666Z,22.80
2023-05-17T13:07:23.934Z,22.60
2023-05-17T13:09:52.573Z,22.40
2023-05-17T13:12:25.485Z,22.60
2023-05-17T13:14:55.125Z,22.70
2023-05-17T13:17:35.177Z,22.90
2023-05-17T13:20:04.820Z,22.80
2023-05-17T13:22:34.571Z,22.50
2023-05-17T13:25:04.281Z,22.40
2023-05-17T13:27:32.534Z,22.60
2023-05-17T13:30:00.978Z,22.80
2023-05-17T13:32:29.934Z,22.90
2023-05-17T13:34:58.324Z,22.90
2023-05-17T13:37:26.697Z,22.70
2023-05-17T13:39:55.216Z,22.40
2023-05-17T13:42:23.875Z,22.30
2023-05-17T13:44:51.871Z,22.70
2023-05-17T13:47:20.157Z,22.90
2023-05-17T13:49:48.760Z,23.10
2023-05-17T13:52:17.900Z,22.90
2023-05-17T13:54:46.143Z,22.70
2023-05-17T13:57:14.634Z,22.40
2023-05-17T13:59:44.296Z,22.50
2023-05-17T14:02:14.259Z,22.80
2023-05-17T14:04:42.433Z,22.90
2023-05-17T14:07:10.657Z,22.90
2023-05-17T14:09:38.984Z,22.60
2023-05-17T14:12:07.636Z,22.40
2023-05-17T14:14:36.030Z,22.40
2023-05-17T14:17:04.544Z,22.70
2023-05-17T14:19:33.188Z,22.90
2023-05-17T14:22:02.257Z,23.00
2023-05-17T14:24:30.542Z,22.80
2023-05-17T14:26:58.909Z,22.60
2023-05-17T14:29:27.194Z,22.50
2023-05-17T14:31:55.752Z,22.60
2023-05-17T14:34:23.963Z,22.80
2023-05-17T14:36:54.470Z,23.00
2023-05-17T14:39:22.756Z,22.90
2023-05-17T14:41:51.143Z,22.60
2023-05-17T14:44:19.440Z,22.50
2023-05-17T14:46:47.641Z,22.60
2023-05-17T14:49:16.100Z,22.80
2023-05-17T14:51:44.394Z,23.00
2023-05-17T14:54:13.621Z,22.90
2023-05-17T14:56:42.106Z,22.70
2023-05-17T14:59:13.264Z,22.50
2023-05-17T15:01:41.802Z,22.50
2023-05-17T15:04:10.036Z,22.70
2023-05-17T15:06:38.452Z,23.00
2023-05-17T15:09:06.776Z,22.90
2023-05-17T15:11:35.158Z,22.70
2023-05-17T15:14:03.556Z,22.40
2023-05-17T15:16:31.713Z,22.50
2023-05-17T15:19:00.364Z,22.70
2023-05-17T15:21:28.336Z,22.90
2023-05-17T15:23:56.983Z,23.00
2023-05-17T15:26:25.183Z,22.70
2023-05-17T15:28:53.423Z,22.60
2023-05-17T15:31:25.627Z,22.60
2023-05-17T15:33:54.087Z,22.90
2023-05-17T15:36:22.428Z,23.10
2023-05-17T15:38:54.649Z,22.90
2023-05-17T15:41:22.985Z,22.70
2023-05-17T15:43:51.207Z,22.40
2023-05-17T15:46:19.713Z,22.60
2023-05-17T15:48:48.017Z,22.80
2023-05-17T15:51:16.321Z,23.00
2023-05-17T15:53:44.690Z,22.90
2023-05-17T15:56:12.946Z,22.70
2023-05-17T15:58:41.186Z,22.50
2023-05-17T16:01:09.467Z,22.60
2023-05-17T16:03:37.953Z,22.80
2023-05-17T16:06:06.277Z,23.00
2023-05-17T16:08:37.239Z,23.10
2023-05-17T16:11:08.134Z,22.80
2023-05-17T16:13:36.372Z,22.50
2023-05-17T16:16:04.848Z,22.50
2023-05-17T16:18:33.108Z,22.70
2023-05-17T16:21:04.472Z,22.90
2023-05-17T16:23:32.925Z,23.00
2023-05-17T16:26:01.367Z,22.80
2023-05-17T16:28:29.616Z,22.50
2023-05-17T16:30:57.929Z,22.40
2023-05-17T16:33:26.536Z,22.60
2023-05-17T16:35:54.892Z,22.80
2023-05-17T16:38:23.232Z,23.00
2023-05-17T16:40:51.559Z,23.00
2023-05-17T16:43:19.669Z,22.70
2023-05-17T16:45:48.038Z,22.50
2023-05-17T16:48:16.580Z,22.50
2023-05-17T16:50:44.828Z,22.70
2023-05-17T16:53:13.207Z,22.90
2023-05-17T16:55:41.518Z,23.10
2023-05-17T16:58:09.921Z,22.80
2023-05-17T17:00:38.208Z,22.60
2023-05-17T17:03:09.281Z,22.50
2023-05-17T17:05:38.786Z,22.60
2023-05-17T17:08:06.631Z,22.90
2023-05-17T17:10:35.066Z,23.40
2023-05-17T17:13:03.348Z,23.60
2023-05-17T17:15:31.459Z,23.70
2023-05-17T17:18:02.573Z,23.80
2023-05-17T17:20:31.123Z,23.80
2023-05-17T17:22:59.929Z,23.80
2023-05-17T17:25:28.267Z,23.80
2023-05-17T17:27:56.563Z,23.70
2023-05-17T17:30:24.911Z,23.70
2023-05-17T17:32:53.103Z,23.70
2023-05-17T17:35:21.619Z,23.70
2023-05-17T17:40:43.456Z,23.90
2023-05-17T17:43:11.538Z,24.30
2023-05-17T17:45:46.040Z,24.50
2023-05-17T17:48:14.756Z,24.40
2023-05-17T17:50:42.968Z,24.20
2023-05-17T17:53:11.302Z,24.20
2023-05-17T17:55:39.402Z,24.10
2023-05-17T17:58:07.692Z,24.10
2023-05-17T18:00:36.016Z,24.10
2023-05-17T18:03:04.354Z,24.00
2023-05-17T18:05:32.522Z,24.00
2023-05-17T18:08:03.784Z,24.00
2023-05-17T18:10:32.305Z,24.00
2023-05-17T18:13:00.676Z,24.00
2023-05-17T18:15:29.081Z,23.90
2023-05-17T18:17:57.300Z,23.90
2023-05-17T18:20:25.625Z,23.90
2023-05-17T18:22:54.132Z,23.90
2023-05-17T18:25:22.823Z,23.80
2023-05-17T18:27:50.693Z,23.90
2023-05-17T18:30:19.667Z,23.80
2023-05-17T18:32:47.982Z,23.80
2023-05-17T18:35:16.180Z,23.80
2023-05-17T18:37:44.528Z,23.70
2023-05-17T18:40:14.534Z,23.70
2023-05-17T18:42:42.855Z,23.80
2023-05-17T18:45:11.460Z,23.80
2023-05-17T18:47:39.423Z,23.80
2023-05-17T18:50:08.284Z,23.90
2023-05-17T18:52:36.140Z,23.80
2023-05-17T18:55:04.472Z,23.90
2023-05-17T18:57:32.669Z,23.80
2023-05-17T19:00:00.918Z,23.70
2023-05-17T19:02:29.127Z,23.70
2023-05-17T19:04:57.217Z,23.80
2023-05-17T19:07:25.591Z,23.40
2023-05-17T19:09:53.773Z,23.20
2023-05-17T19:12:22.001Z,23.00
2023-05-17T19:14:50.493Z,22.80
2023-05-17T19:17:18.785Z,22.70
2023-05-17T19:19:47.108Z,23.00
2023-05-17T19:22:15.390Z,23.30
2023-05-17T19:24:43.628Z,23.30
2023-05-17T19:27:11.969Z,23.20
2023-05-17T19:29:40.305Z,23.40
2023-05-17T19:32:08.797Z,23.60
2023-05-17T19:34:36.934Z,23.70
2023-05-17T19:37:05.466Z,23.80
2023-05-17T19:39:33.685Z,23.90
2023-05-17T19:42:02.705Z,23.90
2023-05-17T19:44:32.559Z,23.90
2023-05-17T19:47:00.846Z,24.00
2023-05-17T19:49:29.148Z,24.00
2023-05-17T19:51:57.546Z,24.00
2023-05-17T19:54:25.865Z,24.00
2023-05-17T19:56:54.287Z,24.00
2023-05-17T19:59:22.515Z,23.80
2023-05-17T20:01:51.605Z,23.40
2023-05-17T20:04:20.139Z,23.10
2023-05-17T20:06:48.408Z,22.90
2023-05-17T20:09:16.824Z,22.70
2023-05-17T20:11:45.328Z,22.80
2023-05-17T20:14:13.693Z,23.00
2023-05-17T20:16:42.215Z,23.20
2023-05-17T20:19:10.425Z,23.40
2023-05-17T20:21:38.767Z,23.10
2023-05-17T20:24:07.663Z,22.80
2023-05-17T20:26:36.538Z,22.60
2023-05-17T20:29:05.370Z,22.80
2023-05-17T20:31:35.014Z,23.10
2023-05-17T20:34:04.670Z,23.30
2023-05-17T20:36:33.027Z,23.20
2023-05-17T20:39:01.140Z,22.90
2023-05-17T20:41:29.645Z,22.60
2023-05-17T20:43:57.951Z,22.70
2023-05-17T20:46:26.392Z,22.90
2023-05-17T20:48:54.633Z,23.10
2023-05-17T20:51:22.957Z,23.30
2023-05-17T20:53:51.153Z,23.10
2023-05-17T20:56:19.516Z,22.80
2023-05-17T20:58:49.178Z,22.50
2023-05-17T21:01:17.323Z,22.70
2023-05-17T21:03:45.839Z,23.00
2023-05-17T21:06:14.274Z,23.20
2023-05-17T21:08:42.467Z,23.20
2023-05-17T21:11:10.714Z,22.90
2023-05-17T21:13:39.073Z,22.60
2023-05-17T21:16:07.583Z,22.60
2023-05-17T21:18:35.858Z,22.90
2023-05-17T21:21:04.358Z,23.10
2023-05-17T21:23:32.610Z,23.10
2023-05-17T21:26:01.059Z,22.80
2023-05-17T21:28:29.889Z,22.60
2023-05-17T21:30:58.466Z,22.50
2023-05-17T21:33:26.881Z,22.80
2023-05-17T21:35:55.248Z,23.00
2023-05-17T21:38:23.934Z,23.10
2023-05-17T21:40:52.526Z,22.90
2023-05-17T21:43:20.836Z,22.60
2023-05-17T21:45:49.340Z,22.60
2023-05-17T21:48:18.029Z,22.80
2023-05-17T21:50:46.526Z,23.00
2023-05-17T21:53:14.858Z,23.20
2023-05-17T21:58:14.712Z,22.70
2023-05-17T22:00:42.958Z,22.60
2023-05-17T22:03:11.524Z,22.80
2023-05-17T22:05:40.002Z,23.10
2023-05-17T22:08:08.458Z,23.30
2023-05-17T22:10:36.622Z,23.20
2023-05-17T22:13:05.076Z,23.00
2023-05-17T22:15:35.973Z,22.90
2023-05-17T22:18:04.766Z,22.80
2023-05-17T22:20:33.134Z,22.70
2023-05-17T22:23:01.557Z,22.80
2023-05-17T22:25:31.086Z,23.10
2023-05-17T22:27:59.548Z,23.30
2023-05-17T22:30:28.237Z,23.30
2023-05-17T22:32:56.589Z,23.10
2023-05-17T22:35:25.542Z,22.90
2023-05-17T22:37:54.022Z,22.80
2023-05-17T22:40:22.645Z,22.70
2023-05-17T22:42:51.008Z,22.70
2023-05-17T22:45:19.282Z,22.70
2023-05-17T22:47:47.930Z,22.70
2023-05-17T22:50:16.339Z,22.70
2023-05-17T22:52:44.676Z,22.60
2023-05-17T22:55:13.333Z,22.60
2023-05-17T22:57:41.639Z,22.60
2023-05-17T23:00:10.485Z,22.80
2023-05-17T23:02:38.575Z,23.10
2023-05-17T23:05:07.094Z,23.10
2023-05-17T23:07:35.468Z,22.90
2023-05-17T23:10:07.621Z,22.80
2023-05-17T23:12:37.148Z,22.70
2023-05-17T23:15:06.168Z,22.60
2023-05-17T23:17:34.725Z,22.80
2023-05-17T23:20:04.040Z,23.00
2023-05-17T23:22:32.298Z,23.20
2023-05-17T23:25:01.008Z,23.20
2023-05-17T23:27:29.022Z,23.00
2023-05-17T23:29:57.968Z,22.80
2023-05-17T23:32:26.061Z,22.80
2023-05-17T23:34:55.151Z,22.70
2023-05-17T23:37:23.536Z,22.60
2023-05-17T23:39:51.821Z,22.60
2023-05-17T23:42:20.280Z,22.50
2023-05-17T23:44:49.197Z,22.50
2023-05-17T23:47:18.293Z,22.50
2023-05-17T23:49:46.319Z,22.70
2023-05-17T23:52:14.873Z,22.90
2023-05-17T23:54:43.357Z,23.10
2023-05-17T23:57:11.819Z,22.90
2023-05-17T23:59:40.201Z,22.80
